Time;durP1;ratioP1;P1;durP2;ratioP2;P2;SDS_P1;SDS_P2;PMS_P1;PMS_P2;Temp;Humidity;BMP_temperature;BMP_pressure;BME280_temperature;BME280_humidity;BME280_pressure;Samples;Min_cycle;Max_cycle;Signal;HPM_P1;HPM_P2
2024/01/26 05:08:05;;;;;;;;;;;5.20;99.90;;;;;;5212786;23;20289;-73
2024/01/26 05:10:32;;;;;;;;;;;5.30;99.90;;;;;;5015419;28;19925;-72
2024/01/26 05:12:59;;;;;;;;;;;5.30;99.90;;;;;;5027118;28;19926;-72
2024/01/26 05:15:27;;;;;;;;;;;5.30;99.90;;;;;;5030749;28;19926;-72
2024/01/26 05:17:56;;;;;;;;;;;5.30;99.90;;;;;;5030749;28;19926;-72
2024/01/26 05:20:23;;;;;;;;;;;5.30;99.90;;;;;;5019651;28;20240;-74
2024/01/26 05:22:49;;;;;;;;;;;5.30;99.90;;;;;;5014742;28;19965;-75
2024/01/26 05:25:17;;;;;;;;;;;5.30;99.90;;;;;;5014039;28;19937;-74
2024/01/26 05:27:44;;;;;;;;;;;5.30;99.90;;;;;;5013610;28;20383;-74
2024/01/26 05:30:11;;;;;;;;;;;5.30;99.90;;;;;;5013865;28;20342;-74
2024/01/26 05:32:38;;;;;;;;;;;5.30;99.90;;;;;;5014221;28;19926;-74
2024/01/26 05:35:05;;;;;;;;;;;5.30;99.90;;;;;;5014393;28;19933;-73
2024/01/26 05:37:31;;;;;;;;;;;5.30;99.90;;;;;;5014834;28;19931;-75
2024/01/26 05:39:58;;;;;;;;;;;5.30;99.90;;;;;;5018499;28;19926;-74
2024/01/26 05:42:26;;;;;;;;;;;5.30;99.90;;;;;;5017877;28;20391;-72
2024/01/26 05:44:52;;;;;;;;;;;5.30;99.90;;;;;;5017931;28;19929;-72
2024/01/26 05:47:19;;;;;;;;;;;5.30;99.90;;;;;;5018226;28;19925;-74
2024/01/26 05:49:46;;;;;;;;;;;5.30;99.90;;;;;;5018560;28;19933;-72
2024/01/26 05:52:12;;;;;;;;;;;5.30;99.90;;;;;;5019157;28;20294;-74
2024/01/26 05:54:39;;;;;;;;;;;5.30;99.90;;;;;;5018015;28;19932;-73
2024/01/26 05:57:05;;;;;;;;;;;5.30;99.90;;;;;;5017808;28;19925;-75
2024/01/26 05:59:36;;;;;;;;;;;5.30;99.90;;;;;;5017643;28;19935;-72
2024/01/26 06:02:03;;;;;;;;;;;5.20;99.90;;;;;;5019921;28;19933;-76
2024/01/26 06:04:31;;;;;;;;;;;5.20;99.90;;;;;;5018104;28;19930;-76
2024/01/26 06:06:57;;;;;;;;;;;5.20;99.90;;;;;;5017729;28;19929;-76
2024/01/26 06:09:25;;;;;;;;;;;5.20;99.90;;;;;;5097119;23;20344;-75
2024/01/26 06:11:51;;;;;;;;;;;5.10;99.90;;;;;;5058111;28;19928;-74
2024/01/26 06:14:18;;;;;;;;;;;5.00;99.90;;;;;;5057770;28;19939;-74
2024/01/26 06:16:49;;;;;;;;;;;5.00;99.90;;;;;;5058347;28;19928;-75
2024/01/26 06:19:15;;;;;;;;;;;5.00;99.90;;;;;;5058231;28;19924;-75
2024/01/26 06:21:42;;;;;;;;;;;5.00;99.90;;;;;;5057864;28;20035;-75
2024/01/26 06:24:08;;;;;;;;;;;5.10;99.90;;;;;;5058106;28;20000;-75
2024/01/26 06:26:35;;;;;;;;;;;5.20;99.90;;;;;;5062694;28;19925;-75
2024/01/26 06:29:03;;;;;;;;;;;5.20;99.90;;;;;;5059997;28;19979;-75
2024/01/26 06:31:29;;;;;;;;;;;5.20;99.90;;;;;;5059752;28;19925;-75
2024/01/26 06:33:58;;;;;;;;;;;5.30;99.90;;;;;;5060272;28;19932;-74
2024/01/26 06:36:24;;;;;;;;;;;5.30;99.90;;;;;;5059443;28;19929;-75
2024/01/26 06:38:51;;;;;;;;;;;5.40;99.90;;;;;;5057592;28;19932;-75
2024/01/26 06:41:17;;;;;;;;;;;5.40;99.90;;;;;;5057767;28;19932;-77
2024/01/26 06:43:50;;;;;;;;;;;5.40;99.90;;;;;;5059334;28;19964;-74
2024/01/26 06:46:18;;;;;;;;;;;5.50;99.90;;;;;;5059148;28;19925;-75
2024/01/26 06:48:45;;;;;;;;;;;5.50;99.90;;;;;;5074361;28;19936;-75
2024/01/26 08:21:50;;;;;;;;;;;10.50;99.90;;;;;;5065916;23;19976;-76
2024/01/26 08:24:16;;;;;;;;;;;10.60;99.90;;;;;;5034408;28;19932;-76
2024/01/26 08:26:43;;;;;;;;;;;10.60;99.90;;;;;;5034366;28;19929;-76
2024/01/26 08:29:09;;;;;;;;;;;10.50;99.90;;;;;;5034354;28;19925;-76
2024/01/26 08:31:37;;;;;;;;;;;10.50;99.90;;;;;;5034625;28;20048;-76
2024/01/26 08:34:03;;;;;;;;;;;10.40;99.90;;;;;;5073603;23;19932;-77
2024/01/26 08:36:30;;;;;;;;;;;10.50;99.90;;;;;;5053948;28;20015;-77
2024/01/26 08:38:58;;;;;;;;;;;10.50;99.90;;;;;;5054380;28;19925;-77
2024/01/26 08:41:24;;;;;;;;;;;10.50;99.90;;;;;;5054373;28;19925;-77
2024/01/26 08:43:51;;;;;;;;;;;10.40;99.90;;;;;;5054484;28;19924;-79
2024/01/26 08:46:18;;;;;;;;;;;10.30;99.90;;;;;;5058190;28;19925;-78
2024/01/26 08:48:44;;;;;;;;;;;10.20;99.90;;;;;;5058715;28;19925;-78
2024/01/26 08:51:11;;;;;;;;;;;10.10;99.90;;;;;;5059128;28;19924;-77
2024/01/26 08:53:37;;;;;;;;;;;10.00;99.90;;;;;;5058903;28;19925;-77
2024/01/26 08:56:06;;;;;;;;;;;9.80;99.90;;;;;;5069954;28;19932;-78
2024/01/26 08:58:33;;;;;;;;;;;9.80;99.90;;;;;;5072472;28;19929;-78
2024/01/26 09:01:00;;;;;;;;;;;9.70;99.90;;;;;;5072362;28;20338;-78
2024/01/26 09:03:27;;;;;;;;;;;9.70;99.90;;;;;;5067249;28;19947;-77
2024/01/26 09:05:53;;;;;;;;;;;9.70;99.90;;;;;;5067289;28;19936;-78
2024/01/26 09:08:20;;;;;;;;;;;9.60;99.90;;;;;;5065898;28;19925;-77
2024/01/26 09:10:47;;;;;;;;;;;9.50;99.90;;;;;;5067544;28;19974;-78
2024/01/26 09:13:15;;;;;;;;;;;9.40;99.90;;;;;;5065083;28;19932;-79
2024/01/26 09:15:42;;;;;;;;;;;9.40;99.90;;;;;;5060140;28;19929;-78
2024/01/26 09:18:09;;;;;;;;;;;9.30;99.90;;;;;;5059061;28;19925;-78
2024/01/26 09:20:35;;;;;;;;;;;9.40;99.90;;;;;;5053450;28;20405;-77
2024/01/26 09:23:02;;;;;;;;;;;9.40;99.90;;;;;;5053851;28;19928;-76
2024/01/26 09:25:28;;;;;;;;;;;9.40;99.90;;;;;;5053921;28;19932;-76
2024/01/26 09:27:55;;;;;;;;;;;9.40;99.90;;;;;;5053822;28;19932;-76
2024/01/26 09:30:23;;;;;;;;;;;9.40;99.90;;;;;;5054225;28;19931;-76
2024/01/26 09:32:50;;;;;;;;;;;9.40;99.90;;;;;;5053332;28;20008;-76
2024/01/26 09:35:17;;;;;;;;;;;9.40;99.90;;;;;;5053758;28;19955;-76
2024/01/26 09:37:44;;;;;;;;;;;9.40;99.90;;;;;;5053534;28;19975;-76
2024/01/26 09:40:12;;;;;;;;;;;9.30;99.90;;;;;;5053618;28;19929;-76
2024/01/26 09:42:38;;;;;;;;;;;9.30;99.90;;;;;;5053498;28;19925;-77
2024/01/26 09:45:06;;;;;;;;;;;9.30;99.90;;;;;;5053625;28;19924;-76
2024/01/26 09:47:35;;;;;;;;;;;9.40;99.90;;;;;;5053465;28;19959;-76
2024/01/26 09:50:03;;;;;;;;;;;9.30;99.90;;;;;;5053356;28;19925;-76
2024/01/26 09:52:32;;;;;;;;;;;9.30;99.90;;;;;;5053410;28;19947;-76
2024/01/26 10:09:25;;;;;;;;;;;9.30;99.90;;;;;;5058797;22;20373;-74
2024/01/26 10:11:52;;;;;;;;;;;9.30;99.90;;;;;;5073564;28;19932;-74
2024/01/26 10:14:21;;;;;;;;;;;9.40;99.90;;;;;;5072950;28;20339;-73
2024/01/26 10:16:57;;;;;;;;;;;9.50;99.90;;;;;;5073350;28;19932;-75
2024/01/26 10:19:24;;;;;;;;;;;9.50;99.90;;;;;;5073266;28;19924;-73
2024/01/26 10:21:51;;;;;;;;;;;9.60;99.90;;;;;;5073270;28;19971;-73
2024/01/26 10:24:17;;;;;;;;;;;9.60;99.90;;;;;;5073201;28;19928;-75
2024/01/26 10:26:45;;;;;;;;;;;9.60;99.90;;;;;;5076593;28;19999;-74
2024/01/26 10:29:12;;;;;;;;;;;9.70;99.90;;;;;;5076747;28;19936;-75
2024/01/26 10:31:41;;;;;;;;;;;9.60;99.90;;;;;;5076628;28;19924;-74
2024/01/26 10:34:10;;;;;;;;;;;9.60;99.90;;;;;;5076296;28;20380;-74
2024/01/26 10:36:37;;;;;;;;;;;9.60;99.90;;;;;;5076624;28;19931;-74
2024/01/26 10:39:04;;;;;;;;;;;9.70;99.90;;;;;;5076649;28;19970;-75
2024/01/26 10:41:32;;;;;;;;;;;9.70;99.90;;;;;;5076518;28;19925;-76
2024/01/26 10:44:00;;;;;;;;;;;9.70;99.90;;;;;;5076407;28;19925;-76
2024/01/26 10:46:27;;;;;;;;;;;9.60;99.90;;;;;;5076543;28;20010;-76
2024/01/26 10:48:55;;;;;;;;;;;9.60;99.90;;;;;;5076234;28;19931;-76
2024/01/26 10:51:22;;;;;;;;;;;9.60;99.90;;;;;;5076202;28;19928;-76
2024/01/26 10:53:50;;;;;;;;;;;9.50;99.90;;;;;;5076363;28;19925;-76
2024/01/26 10:56:16;;;;;;;;;;;9.50;99.90;;;;;;5076201;28;19924;-76
2024/01/26 10:58:43;;;;;;;;;;;9.50;99.90;;;;;;5076227;28;19924;-76
2024/01/26 11:01:11;;;;;;;;;;;9.60;99.90;;;;;;5076067;28;19928;-76
2024/01/26 11:03:38;;;;;;;;;;;9.50;99.90;;;;;;5075688;28;20389;-76
2024/01/26 11:06:08;;;;;;;;;;;9.60;99.90;;;;;;5075921;28;19924;-76
2024/01/26 11:08:34;;;;;;;;;;;9.50;99.90;;;;;;5075429;28;20374;-76
2024/01/26 11:11:01;;;;;;;;;;;9.50;99.90;;;;;;5076051;28;19924;-77
2024/01/26 11:13:28;;;;;;;;;;;9.50;99.90;;;;;;5075828;28;19935;-76
2024/01/26 11:16:03;;;;;;;;;;;9.50;99.90;;;;;;5076312;28;19932;-79
2024/01/26 11:18:34;;;;;;;;;;;9.50;99.90;;;;;;5075790;28;19925;-75
2024/01/26 11:21:02;;;;;;;;;;;9.50;99.90;;;;;;5076027;28;19932;-76
2024/01/26 11:23:35;;;;;;;;;;;9.50;99.90;;;;;;5075749;28;19976;-75
2024/01/26 11:26:01;;;;;;;;;;;9.50;99.90;;;;;;5075513;28;19924;-74
2024/01/26 11:28:29;;;;;;;;;;;9.50;99.90;;;;;;5075378;28;20301;-75
2024/01/26 11:30:57;;;;;;;;;;;9.50;99.90;;;;;;5075811;28;19931;-76
2024/01/26 11:33:24;;;;;;;;;;;9.60;99.90;;;;;;5075283;28;19971;-75
2024/01/26 11:36:02;;;;;;;;;;;9.50;99.90;;;;;;5074956;28;19970;-75
2024/01/26 11:38:29;;;;;;;;;;;9.60;99.90;;;;;;5075230;28;19928;-75
2024/01/26 11:40:57;;;;;;;;;;;9.50;99.90;;;;;;5075501;28;19933;-75
2024/01/26 11:43:25;;;;;;;;;;;9.50;99.90;;;;;;5074999;28;20389;-75
2024/01/26 11:45:52;;;;;;;;;;;9.50;99.90;;;;;;5075101;28;19932;-77
2024/01/26 11:48:20;;;;;;;;;;;9.50;99.90;;;;;;5075102;28;19931;-76
2024/01/26 11:50:47;;;;;;;;;;;9.50;99.90;;;;;;5074892;28;20408;-74
2024/01/26 11:53:16;;;;;;;;;;;9.50;99.90;;;;;;5074757;28;19924;-74
2024/01/26 11:55:43;;;;;;;;;;;9.50;99.90;;;;;;5074950;28;19951;-75
2024/01/26 11:58:10;;;;;;;;;;;9.60;99.90;;;;;;5074716;28;19929;-73
2024/01/26 12:00:37;;;;;;;;;;;9.60;99.90;;;;;;5074469;28;20463;-73
2024/01/26 12:03:05;;;;;;;;;;;9.50;99.90;;;;;;5074747;28;20007;-74
2024/01/26 12:05:33;;;;;;;;;;;9.60;99.90;;;;;;5074917;28;19924;-74
2024/01/26 12:08:00;;;;;;;;;;;9.60;99.90;;;;;;5074424;28;19994;-74
2024/01/26 12:10:27;;;;;;;;;;;9.60;99.90;;;;;;5074603;28;19925;-74
2024/01/26 12:12:54;;;;;;;;;;;9.60;99.90;;;;;;5074486;28;19925;-74
2024/01/26 12:15:21;;;;;;;;;;;9.60;99.90;;;;;;5074474;28;19974;-74
2024/01/26 12:17:47;;;;;;;;;;;9.70;99.90;;;;;;5074428;28;19947;-74
2024/01/26 12:20:14;;;;;;;;;;;9.70;99.90;;;;;;5074517;28;19929;-74
2024/01/26 12:22:43;;;;;;;;;;;9.60;99.90;;;;;;5074480;28;19924;-74
2024/01/26 12:25:13;;;;;;;;;;;9.60;99.90;;;;;;5074453;28;19929;-74
2024/01/26 12:27:41;;;;;;;;;;;9.70;99.90;;;;;;5074787;28;19928;-74
2024/01/26 12:30:08;;;;;;;;;;;9.60;99.90;;;;;;5074297;28;19924;-73
2024/01/26 12:32:36;;;;;;;;;;;9.70;99.90;;;;;;5074006;28;19931;-73
2024/01/26 12:35:03;;;;;;;;;;;9.60;99.90;;;;;;5074111;28;19925;-73
2024/01/26 12:37:29;;;;;;;;;;;9.70;99.90;;;;;;5074262;28;19928;-73
2024/01/26 12:39:56;;;;;;;;;;;9.70;99.90;;;;;;5074095;28;19925;-73
2024/01/26 12:42:22;;;;;;;;;;;9.70;99.90;;;;;;5074741;28;19929;-74
2024/01/26 12:44:50;;;;;;;;;;;9.70;99.90;;;;;;5074856;28;19928;-74
2024/01/26 12:47:17;;;;;;;;;;;9.70;99.90;;;;;;5073641;28;19924;-74
2024/01/26 12:49:43;;;;;;;;;;;9.70;99.90;;;;;;5073806;28;19924;-74
2024/01/26 12:52:11;;;;;;;;;;;9.70;99.90;;;;;;5074074;28;19924;-74
2024/01/26 12:54:37;;;;;;;;;;;9.70;99.90;;;;;;5073845;28;19924;-74
2024/01/26 12:57:04;;;;;;;;;;;9.70;99.90;;;;;;5073840;28;20389;-73
2024/01/26 12:59:31;;;;;;;;;;;9.70;99.90;;;;;;5074412;28;19947;-73
2024/01/26 13:01:59;;;;;;;;;;;9.70;99.90;;;;;;5074512;28;19924;-71
2024/01/26 13:04:26;;;;;;;;;;;9.70;99.90;;;;;;5074725;28;19978;-73
2024/01/26 13:06:52;;;;;;;;;;;9.70;99.90;;;;;;5074510;28;19925;-73
2024/01/26 13:09:20;;;;;;;;;;;9.70;99.90;;;;;;5075524;28;19940;-75
2024/01/26 13:11:46;;;;;;;;;;;9.70;99.90;;;;;;5074748;28;19924;-75
2024/01/26 13:14:13;;;;;;;;;;;9.70;99.90;;;;;;5075267;28;19924;-74
2024/01/26 13:16:40;;;;;;;;;;;9.70;99.90;;;;;;5074499;28;19933;-74
2024/01/26 13:19:08;;;;;;;;;;;9.60;99.90;;;;;;5074338;28;19924;-74
2024/01/26 13:21:35;;;;;;;;;;;9.60;99.90;;;;;;5074254;28;20432;-74
2024/01/26 13:24:02;;;;;;;;;;;9.60;99.90;;;;;;5074708;28;19982;-73
2024/01/26 13:26:28;;;;;;;;;;;9.60;99.90;;;;;;5074835;28;19932;-73
2024/01/26 13:28:55;;;;;;;;;;;9.60;99.90;;;;;;5074485;28;19964;-73
2024/01/26 13:31:22;;;;;;;;;;;9.60;99.90;;;;;;5073892;28;19929;-72
2024/01/26 13:33:50;;;;;;;;;;;9.60;99.90;;;;;;5074579;28;20039;-72
2024/01/26 13:36:18;;;;;;;;;;;9.50;99.90;;;;;;5074501;28;19925;-72
2024/01/26 13:38:45;;;;;;;;;;;9.60;99.90;;;;;;5074512;28;20427;-72
2024/01/26 13:41:12;;;;;;;;;;;9.50;99.90;;;;;;5074164;28;19925;-72
2024/01/26 13:43:39;;;;;;;;;;;9.50;99.90;;;;;;5073584;28;19967;-72
2024/01/26 13:46:05;;;;;;;;;;;9.50;99.90;;;;;;5073629;28;19924;-71
2024/01/26 13:48:34;;;;;;;;;;;9.50;99.90;;;;;;5074242;28;19924;-71
2024/01/26 13:51:01;;;;;;;;;;;9.50;99.90;;;;;;5074446;28;19978;-72
2024/01/26 13:53:29;;;;;;;;;;;9.40;99.90;;;;;;5074455;28;19935;-72
2024/01/26 13:55:56;;;;;;;;;;;9.40;99.90;;;;;;5074349;28;20430;-72
2024/01/26 13:58:23;;;;;;;;;;;9.40;99.90;;;;;;5074273;28;19924;-72
2024/01/26 14:00:50;;;;;;;;;;;9.30;99.90;;;;;;5077309;28;19955;-73
2024/01/26 14:03:17;;;;;;;;;;;9.30;99.90;;;;;;5077690;28;20411;-73
2024/01/26 14:05:44;;;;;;;;;;;9.30;99.90;;;;;;5077973;28;20015;-73
2024/01/26 14:08:11;;;;;;;;;;;9.20;99.90;;;;;;5077902;28;20341;-73
2024/01/26 14:10:39;;;;;;;;;;;9.20;99.90;;;;;;5078181;28;19974;-73
2024/01/26 14:13:07;;;;;;;;;;;9.10;99.90;;;;;;5077721;28;19924;-73
2024/01/26 14:15:34;;;;;;;;;;;9.10;99.90;;;;;;5077837;28;20012;-73
2024/01/26 14:18:01;;;;;;;;;;;9.10;99.90;;;;;;5077713;28;20443;-73
2024/01/26 14:20:28;;;;;;;;;;;9.10;99.90;;;;;;5077958;28;20037;-72
2024/01/26 14:22:55;;;;;;;;;;;9.10;99.90;;;;;;5077670;28;20416;-72
2024/01/26 14:25:23;;;;;;;;;;;9.20;99.90;;;;;;5077587;28;20393;-73
2024/01/26 14:27:51;;;;;;;;;;;9.20;99.90;;;;;;5078466;28;20263;-72
2024/01/26 14:30:19;;;;;;;;;;;9.10;99.90;;;;;;5077398;28;20007;-72
2024/01/26 14:32:46;;;;;;;;;;;9.20;99.90;;;;;;5076561;28;20019;-73
2024/01/26 14:35:14;;;;;;;;;;;9.20;99.90;;;;;;5076049;28;19971;-73
2024/01/26 14:37:41;;;;;;;;;;;9.10;99.90;;;;;;5076546;28;19928;-73
2024/01/26 14:40:11;;;;;;;;;;;9.10;99.90;;;;;;5076757;28;19924;-74
2024/01/26 14:42:38;;;;;;;;;;;9.20;99.90;;;;;;5076412;28;19924;-73
2024/01/26 14:45:07;;;;;;;;;;;9.10;99.90;;;;;;5076363;28;19925;-73
2024/01/26 14:47:33;;;;;;;;;;;9.10;99.90;;;;;;5076272;28;19932;-73
2024/01/26 14:50:00;;;;;;;;;;;9.00;99.90;;;;;;5076351;28;20018;-73
2024/01/26 14:52:27;;;;;;;;;;;9.00;99.90;;;;;;5076625;28;19931;-73
2024/01/26 14:54:54;;;;;;;;;;;9.00;99.90;;;;;;5076186;28;19924;-73
2024/01/26 14:57:20;;;;;;;;;;;9.00;99.90;;;;;;5076204;28;19932;-73
2024/01/26 14:59:47;;;;;;;;;;;9.00;99.90;;;;;;5076066;28;19924;-73
2024/01/26 15:02:17;;;;;;;;;;;9.00;99.90;;;;;;5076410;28;19933;-73
2024/01/26 15:04:45;;;;;;;;;;;9.00;99.90;;;;;;5076165;28;19924;-73
2024/01/26 15:07:11;;;;;;;;;;;9.00;99.90;;;;;;5075755;28;20389;-73
2024/01/26 15:09:38;;;;;;;;;;;9.00;99.90;;;;;;5075762;28;19964;-73
2024/01/26 15:12:05;;;;;;;;;;;9.00;99.90;;;;;;5075281;28;19925;-73
2024/01/26 15:14:32;;;;;;;;;;;9.00;99.90;;;;;;5076605;28;19928;-73
2024/01/26 15:16:59;;;;;;;;;;;9.00;99.90;;;;;;5077083;28;19924;-74
2024/01/26 15:19:26;;;;;;;;;;;9.00;99.90;;;;;;5076868;28;19931;-72
2024/01/26 15:21:56;;;;;;;;;;;9.00;99.90;;;;;;5077164;28;19925;-73
2024/01/26 15:24:22;;;;;;;;;;;9.00;99.90;;;;;;5077224;28;19975;-73
2024/01/26 15:26:50;;;;;;;;;;;9.00;99.90;;;;;;5077343;28;19933;-72
2024/01/26 15:29:16;;;;;;;;;;;9.00;99.90;;;;;;5077443;28;19975;-74
2024/01/26 15:31:43;;;;;;;;;;;9.00;99.90;;;;;;5077438;28;19928;-73
2024/01/26 15:34:09;;;;;;;;;;;8.90;99.90;;;;;;5077632;28;19924;-72
2024/01/26 15:36:37;;;;;;;;;;;8.90;99.90;;;;;;5077645;28;19925;-72
2024/01/26 15:39:04;;;;;;;;;;;8.90;99.90;;;;;;5077127;28;19924;-72
2024/01/26 15:41:31;;;;;;;;;;;8.90;99.90;;;;;;5075651;28;19928;-72
2024/01/26 15:43:57;;;;;;;;;;;8.90;99.90;;;;;;5075138;28;19932;-72
2024/01/26 15:46:25;;;;;;;;;;;8.80;99.90;;;;;;5075005;28;20389;-72
2024/01/26 15:48:51;;;;;;;;;;;8.80;99.90;;;;;;5075006;28;19982;-72
2024/01/26 15:51:18;;;;;;;;;;;8.80;99.90;;;;;;5075017;28;19924;-72
2024/01/26 15:53:46;;;;;;;;;;;8.80;99.90;;;;;;5075021;28;19924;-72
2024/01/26 15:56:12;;;;;;;;;;;8.80;99.90;;;;;;5074952;28;20270;-72
2024/01/26 15:58:39;;;;;;;;;;;8.80;99.90;;;;;;5074496;28;20297;-72
2024/01/26 16:01:05;;;;;;;;;;;8.70;99.90;;;;;;5074583;28;20393;-72
2024/01/26 16:03:32;;;;;;;;;;;8.80;99.90;;;;;;5074999;28;19946;-73
2024/01/26 16:05:58;;;;;;;;;;;8.70;99.90;;;;;;5074807;28;19931;-73
2024/01/26 16:08:25;;;;;;;;;;;8.70;99.90;;;;;;5074412;28;19924;-73
2024/01/26 16:10:54;;;;;;;;;;;8.70;99.90;;;;;;5075709;28;20357;-72
2024/01/26 16:13:20;;;;;;;;;;;8.70;99.90;;;;;;5074934;28;19939;-72
2024/01/26 16:15:49;;;;;;;;;;;8.70;99.90;;;;;;5074631;28;19925;-72
2024/01/26 16:18:16;;;;;;;;;;;8.70;99.90;;;;;;5074604;28;19925;-72
2024/01/26 16:20:42;;;;;;;;;;;8.70;99.90;;;;;;5074676;28;19931;-73
2024/01/26 16:23:09;;;;;;;;;;;8.60;99.90;;;;;;5073511;28;19924;-73
2024/01/26 16:25:35;;;;;;;;;;;8.70;99.90;;;;;;5074712;28;19931;-74
2024/01/26 16:28:04;;;;;;;;;;;8.70;99.90;;;;;;5074692;28;19925;-73
2024/01/26 16:30:30;;;;;;;;;;;8.60;99.90;;;;;;5074397;28;19934;-73
2024/01/26 16:32:57;;;;;;;;;;;8.60;99.90;;;;;;5074323;28;19925;-73
2024/01/26 16:35:23;;;;;;;;;;;8.60;99.90;;;;;;5074304;28;19924;-74
2024/01/26 16:37:50;;;;;;;;;;;8.60;99.90;;;;;;5074202;28;19924;-74
2024/01/26 16:40:16;;;;;;;;;;;8.60;99.90;;;;;;5073973;28;19947;-74
2024/01/26 16:42:43;;;;;;;;;;;8.60;99.90;;;;;;5074151;28;19928;-75
2024/01/26 16:45:11;;;;;;;;;;;8.60;99.90;;;;;;5074122;28;19925;-75
2024/01/26 16:47:37;;;;;;;;;;;8.50;99.90;;;;;;5073619;28;20274;-76
2024/01/26 16:50:04;;;;;;;;;;;8.60;99.90;;;;;;5074078;28;19948;-75
2024/01/26 16:52:31;;;;;;;;;;;8.50;99.90;;;;;;5074012;28;19928;-75
2024/01/26 16:54:58;;;;;;;;;;;8.40;99.90;;;;;;5074031;28;19931;-75
2024/01/26 16:57:24;;;;;;;;;;;8.40;99.90;;;;;;5074119;28;20021;-75
2024/01/26 16:59:51;;;;;;;;;;;8.30;99.90;;;;;;5073954;28;19924;-74
2024/01/26 17:02:20;;;;;;;;;;;8.30;99.90;;;;;;5073987;28;19932;-74
2024/01/26 17:04:47;;;;;;;;;;;8.20;99.90;;;;;;5073998;28;19925;-74
2024/01/26 17:07:13;;;;;;;;;;;8.20;99.90;;;;;;5073801;28;19931;-75
2024/01/26 17:09:40;;;;;;;;;;;8.20;99.90;;;;;;5073361;28;19932;-75
2024/01/26 17:12:07;;;;;;;;;;;8.20;99.90;;;;;;5074096;28;19924;-75
2024/01/26 17:14:33;;;;;;;;;;;8.10;99.90;;;;;;5073751;28;19931;-75
2024/01/26 17:17:00;;;;;;;;;;;8.10;99.90;;;;;;5073881;28;19924;-75
2024/01/26 17:19:28;;;;;;;;;;;8.10;99.90;;;;;;5074064;28;19931;-76
2024/01/26 17:21:54;;;;;;;;;;;8.10;99.90;;;;;;5074473;28;19925;-75
2024/01/26 17:24:21;;;;;;;;;;;8.00;99.90;;;;;;5073821;28;19928;-75
2024/01/26 17:26:47;;;;;;;;;;;8.10;99.90;;;;;;5073850;28;19947;-76
2024/01/26 17:29:14;;;;;;;;;;;8.10;99.90;;;;;;5073556;28;20294;-76
2024/01/26 17:31:40;;;;;;;;;;;8.10;99.90;;;;;;5073629;28;19925;-76
2024/01/26 17:34:07;;;;;;;;;;;8.10;99.90;;;;;;5075188;28;19925;-75
2024/01/26 17:36:35;;;;;;;;;;;8.20;99.90;;;;;;5077719;28;19932;-76
2024/01/26 17:39:02;;;;;;;;;;;8.20;99.90;;;;;;5077902;28;19931;-76
2024/01/26 17:41:28;;;;;;;;;;;8.20;99.90;;;;;;5077917;28;19925;-75
2024/01/26 17:43:55;;;;;;;;;;;8.20;99.90;;;;;;5077635;28;19928;-75
2024/01/26 17:46:22;;;;;;;;;;;8.20;99.90;;;;;;5079566;28;19924;-75
2024/01/26 17:48:48;;;;;;;;;;;8.20;99.90;;;;;;5081717;28;19924;-77
2024/01/26 17:51:15;;;;;;;;;;;8.20;99.90;;;;;;5082620;28;19932;-77
2024/01/26 17:53:43;;;;;;;;;;;8.20;99.90;;;;;;5082072;28;19940;-77
2024/01/26 17:56:10;;;;;;;;;;;8.10;99.90;;;;;;5082029;28;19932;-77
2024/01/26 17:58:36;;;;;;;;;;;8.20;99.90;;;;;;5135467;22;19932;-73
2024/01/26 18:01:03;;;;;;;;;;;7.90;99.90;;;;;;5078347;28;19924;-74
2024/01/26 18:03:29;;;;;;;;;;;8.00;99.90;;;;;;5078305;28;19925;-74
2024/01/26 18:05:57;;;;;;;;;;;7.80;99.90;;;;;;5077874;28;19924;-75
2024/01/26 18:08:24;;;;;;;;;;;7.70;99.90;;;;;;5078287;28;19947;-75
2024/01/26 18:10:52;;;;;;;;;;;7.60;99.90;;;;;;5077780;28;19937;-74
2024/01/26 18:13:18;;;;;;;;;;;7.50;99.90;;;;;;5077933;28;19928;-75
2024/01/26 18:15:45;;;;;;;;;;;7.40;99.90;;;;;;5077909;28;20292;-74
2024/01/26 18:18:12;;;;;;;;;;;7.30;99.90;;;;;;5077316;28;20413;-74
2024/01/26 18:20:39;;;;;;;;;;;7.10;99.90;;;;;;5077095;28;20457;-74
2024/01/26 18:23:05;;;;;;;;;;;7.00;99.90;;;;;;5077366;28;20020;-74
2024/01/26 18:25:32;;;;;;;;;;;6.90;99.90;;;;;;5077693;28;19950;-72
2024/01/26 18:28:00;;;;;;;;;;;6.80;99.90;;;;;;5077411;28;19951;-75
2024/01/26 18:30:26;;;;;;;;;;;6.70;99.90;;;;;;5078322;28;19929;-73
2024/01/26 18:32:53;;;;;;;;;;;6.60;99.90;;;;;;5077435;28;19924;-73
2024/01/26 18:35:19;;;;;;;;;;;6.50;99.90;;;;;;5077205;28;19947;-73
2024/01/26 18:37:46;;;;;;;;;;;6.40;99.90;;;;;;5076751;28;19931;-73
2024/01/26 18:40:12;;;;;;;;;;;6.40;99.90;;;;;;5076942;28;19932;-74
2024/01/26 18:42:39;;;;;;;;;;;6.30;99.90;;;;;;5077508;28;19967;-73
2024/01/26 18:45:08;;;;;;;;;;;6.20;99.90;;;;;;5077291;28;20026;-73
2024/01/26 18:47:35;;;;;;;;;;;6.10;99.90;;;;;;5077350;28;19955;-73
2024/01/26 18:50:01;;;;;;;;;;;6.10;99.90;;;;;;5077646;28;19924;-73
2024/01/26 18:52:29;;;;;;;;;;;6.00;99.90;;;;;;5077481;28;19928;-74
2024/01/26 18:54:55;;;;;;;;;;;5.90;99.90;;;;;;5077484;28;19925;-74
2024/01/26 18:57:22;;;;;;;;;;;5.90;99.90;;;;;;5078786;28;19924;-74
2024/01/26 18:59:49;;;;;;;;;;;5.90;99.90;;;;;;5080087;28;19928;-74
2024/01/26 19:02:17;;;;;;;;;;;5.90;99.90;;;;;;5083612;28;19932;-74
2024/01/26 19:04:43;;;;;;;;;;;5.90;99.90;;;;;;5087373;28;19928;-74
2024/01/26 19:07:10;;;;;;;;;;;5.90;99.90;;;;;;5079503;28;19924;-76
2024/01/26 19:09:36;;;;;;;;;;;5.90;99.90;;;;;;5077709;28;19924;-74
2024/01/26 19:12:03;;;;;;;;;;;6.00;99.90;;;;;;5076582;28;20393;-74
2024/01/26 19:14:30;;;;;;;;;;;6.00;99.90;;;;;;5077658;28;19956;-74
2024/01/26 19:16:57;;;;;;;;;;;6.00;99.90;;;;;;5076905;28;19999;-75
2024/01/26 19:19:25;;;;;;;;;;;6.10;99.90;;;;;;5077425;28;19931;-74
2024/01/26 19:21:51;;;;;;;;;;;6.10;99.90;;;;;;5076891;28;19994;-74
2024/01/26 19:24:18;;;;;;;;;;;6.00;99.90;;;;;;5076831;28;19925;-74
2024/01/26 19:26:45;;;;;;;;;;;6.00;99.90;;;;;;5076936;28;19924;-74
2024/01/26 19:29:11;;;;;;;;;;;5.90;99.90;;;;;;5076976;28;19931;-74
2024/01/26 19:31:38;;;;;;;;;;;5.80;99.90;;;;;;5076685;28;19928;-74
2024/01/26 19:34:04;;;;;;;;;;;5.70;99.90;;;;;;5076526;28;19931;-75
2024/01/26 19:36:32;;;;;;;;;;;5.70;99.90;;;;;;5076604;28;19931;-74
2024/01/26 19:38:59;;;;;;;;;;;5.60;99.90;;;;;;5076387;28;20293;-75
2024/01/26 19:41:25;;;;;;;;;;;5.60;99.90;;;;;;5076248;28;19931;-75
2024/01/26 19:43:52;;;;;;;;;;;5.60;99.90;;;;;;5076255;28;19924;-74
2024/01/26 19:46:19;;;;;;;;;;;5.60;99.90;;;;;;5076339;28;19928;-74
2024/01/26 19:48:45;;;;;;;;;;;5.60;99.90;;;;;;5076186;28;19936;-74
2024/01/26 19:51:12;;;;;;;;;;;5.60;99.90;;;;;;5076364;28;19924;-74
2024/01/26 19:53:40;;;;;;;;;;;5.60;99.90;;;;;;5076018;28;19935;-75
2024/01/26 19:56:07;;;;;;;;;;;5.40;99.90;;;;;;5075921;28;19932;-75
2024/01/26 19:58:35;;;;;;;;;;;5.40;99.90;;;;;;5075971;28;19931;-74
2024/01/26 20:01:02;;;;;;;;;;;5.30;99.90;;;;;;5075731;28;19978;-75
2024/01/26 20:03:31;;;;;;;;;;;5.10;99.90;;;;;;5075554;28;21384;-74
2024/01/26 20:05:57;;;;;;;;;;;5.10;99.90;;;;;;5076287;28;19947;-73
2024/01/26 20:08:26;;;;;;;;;;;5.00;99.90;;;;;;5076137;28;19924;-74
2024/01/26 20:10:55;;;;;;;;;;;4.90;99.90;;;;;;5076223;28;19970;-73
2024/01/26 20:13:22;;;;;;;;;;;4.70;99.90;;;;;;5076240;28;19947;-74
2024/01/26 20:15:48;;;;;;;;;;;4.70;99.90;;;;;;5075474;28;19971;-75
2024/01/26 20:18:16;;;;;;;;;;;4.50;99.90;;;;;;5076117;28;19924;-75
2024/01/26 20:20:43;;;;;;;;;;;4.40;99.90;;;;;;5075563;28;20359;-75
2024/01/26 20:23:09;;;;;;;;;;;4.40;99.90;;;;;;5075632;28;20015;-74
2024/01/26 20:25:37;;;;;;;;;;;4.30;99.90;;;;;;5075842;28;19925;-73
2024/01/26 20:28:05;;;;;;;;;;;4.30;99.90;;;;;;5075048;28;20388;-75
2024/01/26 20:30:32;;;;;;;;;;;4.10;99.90;;;;;;5075383;28;19932;-75
2024/01/26 20:33:01;;;;;;;;;;;4.10;99.90;;;;;;5075188;28;19951;-74
2024/01/26 20:35:27;;;;;;;;;;;4.00;99.90;;;;;;5074894;28;19928;-76
2024/01/26 20:37:54;;;;;;;;;;;3.90;99.90;;;;;;5074968;28;19924;-75
2024/01/26 20:40:21;;;;;;;;;;;3.80;99.90;;;;;;5075599;28;20386;-75
2024/01/26 20:42:47;;;;;;;;;;;3.80;99.90;;;;;;5075555;28;20324;-74
2024/01/26 20:45:15;;;;;;;;;;;3.70;99.90;;;;;;5075469;28;19924;-75
2024/01/26 20:47:42;;;;;;;;;;;3.70;99.90;;;;;;5075073;28;20282;-74
2024/01/26 20:50:10;;;;;;;;;;;3.60;99.90;;;;;;5075075;28;19943;-74
2024/01/26 20:52:36;;;;;;;;;;;3.60;99.90;;;;;;5075391;28;19924;-74
2024/01/26 20:55:03;;;;;;;;;;;3.60;99.90;;;;;;5075079;28;19932;-75
2024/01/26 20:57:30;;;;;;;;;;;3.50;99.90;;;;;;5075331;28;19995;-75
2024/01/26 20:59:57;;;;;;;;;;;3.50;99.90;;;;;;5075462;28;19925;-75
2024/01/26 21:02:25;;;;;;;;;;;3.40;99.90;;;;;;5076028;28;20003;-76
2024/01/26 21:04:51;;;;;;;;;;;3.40;99.90;;;;;;5075087;28;20404;-75
2024/01/26 21:07:18;;;;;;;;;;;3.30;99.90;;;;;;5074941;28;20390;-74
2024/01/26 21:09:44;;;;;;;;;;;3.20;99.90;;;;;;5074621;28;19925;-73
2024/01/26 21:12:11;;;;;;;;;;;3.20;99.90;;;;;;5075062;28;20371;-74
2024/01/26 21:14:37;;;;;;;;;;;3.10;99.90;;;;;;5074789;28;19930;-74
2024/01/26 21:17:05;;;;;;;;;;;3.10;99.90;;;;;;5074761;28;19924;-74
2024/01/26 21:19:32;;;;;;;;;;;3.00;99.90;;;;;;5074952;28;19924;-75